createdAt,value
2018-08-10T00:00:01.012Z,18.71
2018-08-10T00:01:01.782Z,18.71
2018-08-10T00:02:02.556Z,18.69
2018-08-10T00:03:03.327Z,18.68
2018-08-10T00:04:04.128Z,18.67
2018-08-10T00:05:04.943Z,18.66
2018-08-10T00:06:04.681Z,18.65
2018-08-10T00:07:06.453Z,18.64
2018-08-10T00:08:07.225Z,18.63
2018-08-10T00:09:08.022Z,18.62
2018-08-10T00:10:08.796Z,18.60
2018-08-10T00:11:09.573Z,18.59
2018-08-10T00:12:10.346Z,18.57
2018-08-10T00:13:11.122Z,18.56
2018-08-10T00:14:11.925Z,18.54
2018-08-10T00:15:12.695Z,18.52
2018-08-10T00:16:13.470Z,18.50
2018-08-10T00:17:14.241Z,18.48
2018-08-10T00:18:15.015Z,18.46
2018-08-10T00:19:15.812Z,18.44
2018-08-10T00:20:16.588Z,18.41
2018-08-10T00:21:17.357Z,18.39
2018-08-10T00:22:18.130Z,18.37
2018-08-10T00:23:18.909Z,18.34
2018-08-10T00:24:19.699Z,18.32
2018-08-10T00:25:20.472Z,18.30
2018-08-10T00:26:21.244Z,18.28
2018-08-10T00:27:22.024Z,18.25
2018-08-10T00:28:22.791Z,18.23
2018-08-10T00:29:23.596Z,18.21
2018-08-10T00:30:24.368Z,18.18
2018-08-10T00:31:27.448Z,18.16
2018-08-10T00:32:25.631Z,18.14
2018-08-10T00:33:24.820Z,18.11
2018-08-10T00:34:40.043Z,17.67
2018-08-10T00:35:40.845Z,17.67
2018-08-10T00:36:40.591Z,17.67
2018-08-10T00:37:42.351Z,17.67
2018-08-10T00:38:43.121Z,17.66
2018-08-10T00:39:43.925Z,17.66
2018-08-10T00:40:44.689Z,17.66
2018-08-10T00:41:45.466Z,17.65
2018-08-10T00:42:46.240Z,17.65
2018-08-10T00:43:47.022Z,17.64
2018-08-10T00:44:47.812Z,17.63
2018-08-10T00:45:48.584Z,17.63
2018-08-10T00:46:49.356Z,17.62
2018-08-10T00:47:50.127Z,17.62
2018-08-10T00:48:50.899Z,17.61
2018-08-10T00:49:51.713Z,17.61
2018-08-10T00:50:52.465Z,17.60
2018-08-10T00:51:53.235Z,17.59
2018-08-10T00:52:54.010Z,17.59
2018-08-10T00:53:54.789Z,17.58
2018-08-10T00:54:55.594Z,17.57
2018-08-10T00:55:56.366Z,17.57
2018-08-10T00:56:57.227Z,17.56
2018-08-10T00:57:56.921Z,17.54
2018-08-10T00:58:58.694Z,17.53
2018-08-10T00:59:59.488Z,17.51
2018-08-10T01:01:00.267Z,17.50
2018-08-10T01:02:01.041Z,17.48
2018-08-10T01:03:01.813Z,17.46
2018-08-10T01:04:02.585Z,17.45
2018-08-10T01:05:03.382Z,17.43
2018-08-10T01:06:05.152Z,17.42
2018-08-10T01:07:05.012Z,17.41
2018-08-10T01:08:04.712Z,17.40
2018-08-10T01:09:06.482Z,17.38
2018-08-10T01:10:07.274Z,17.37
2018-08-10T01:11:08.055Z,17.37
2018-08-10T01:12:08.827Z,17.35
2018-08-10T01:13:09.640Z,17.34
2018-08-10T01:14:09.383Z,17.33
2018-08-10T01:15:11.167Z,17.32
2018-08-10T01:16:11.942Z,17.30
2018-08-10T01:17:12.715Z,17.29
2018-08-10T01:18:13.489Z,17.27
2018-08-10T01:19:14.335Z,17.26
2018-08-10T01:20:15.062Z,17.24
2018-08-10T01:21:15.830Z,17.22
2018-08-10T01:22:16.687Z,17.21
2018-08-10T01:23:16.381Z,17.18
2018-08-10T01:24:18.158Z,17.17
2018-08-10T01:25:18.963Z,17.15
2018-08-10T01:26:19.740Z,17.13
2018-08-10T01:27:20.512Z,17.12
2018-08-10T01:28:21.309Z,17.10
2018-08-10T01:29:21.062Z,17.09
2018-08-10T01:30:22.870Z,17.08
2018-08-10T01:31:23.644Z,17.07
2018-08-10T01:32:24.414Z,17.06
2018-08-10T01:33:25.187Z,17.05
2018-08-10T01:34:25.965Z,17.05
2018-08-10T01:35:26.762Z,17.04
2018-08-10T01:36:27.542Z,17.04
2018-08-10T01:37:28.397Z,17.03
2018-08-10T01:38:28.096Z,17.03
2018-08-10T01:39:29.863Z,17.03
2018-08-10T01:40:30.666Z,17.02
2018-08-10T01:41:31.442Z,17.02
2018-08-10T01:42:32.214Z,17.02
2018-08-10T01:43:32.991Z,17.01
2018-08-10T01:44:33.767Z,17.01
2018-08-10T01:45:35.288Z,17.01
2018-08-10T01:46:35.063Z,17.00
2018-08-10T01:47:35.836Z,17.00
2018-08-10T01:48:36.607Z,16.99
2018-08-10T01:49:37.380Z,16.98
2018-08-10T01:50:38.772Z,16.98
2018-08-10T01:51:38.549Z,16.97
2018-08-10T01:52:39.318Z,16.96
2018-08-10T01:53:40.094Z,16.95
2018-08-10T01:54:40.867Z,16.94
2018-08-10T01:55:41.666Z,16.93
2018-08-10T01:56:42.442Z,16.92
2018-08-10T01:57:43.217Z,16.90
2018-08-10T01:58:42.981Z,16.89
2018-08-10T01:59:44.754Z,16.87
2018-08-10T02:00:45.553Z,16.86
2018-08-10T02:01:46.327Z,16.85
2018-08-10T02:02:47.102Z,16.83
2018-08-10T02:03:47.874Z,16.82
2018-08-10T02:04:48.649Z,16.80
2018-08-10T02:05:49.447Z,16.79
2018-08-10T02:06:50.223Z,16.78
2018-08-10T02:07:50.997Z,16.76
2018-08-10T02:08:51.767Z,16.75
2018-08-10T02:09:52.555Z,16.73
2018-08-10T02:10:53.350Z,16.72
2018-08-10T02:11:54.125Z,16.71
2018-08-10T02:12:54.901Z,16.69
2018-08-10T02:13:55.670Z,16.68
2018-08-10T02:14:56.439Z,16.67
2018-08-10T02:15:57.251Z,16.66
2018-08-10T02:16:58.048Z,16.64
2018-08-10T02:17:58.807Z,16.63
2018-08-10T02:18:59.573Z,16.62
2018-08-10T02:20:00.352Z,16.62
2018-08-10T02:21:01.142Z,16.61
2018-08-10T02:22:01.914Z,16.60
2018-08-10T02:23:02.692Z,16.60
2018-08-10T02:24:03.458Z,16.59
2018-08-10T02:25:04.321Z,16.58
2018-08-10T02:26:04.051Z,16.58
2018-08-10T02:27:05.819Z,16.57
2018-08-10T02:28:06.589Z,16.57
2018-08-10T02:29:07.363Z,16.56
2018-08-10T02:30:08.504Z,16.56
2018-08-10T02:31:08.714Z,16.55
2018-08-10T02:32:07.901Z,16.55
2018-08-10T02:35:04.848Z,16.39
2018-08-10T02:36:05.659Z,16.39
2018-08-10T02:37:06.423Z,16.39
2018-08-10T02:38:07.200Z,16.39
2018-08-10T02:39:07.963Z,16.39
2018-08-10T02:40:08.736Z,16.39
2018-08-10T02:41:09.534Z,16.38
2018-08-10T02:42:10.306Z,16.38
2018-08-10T02:43:11.079Z,16.37
2018-08-10T02:44:11.850Z,16.36
2018-08-10T02:45:13.619Z,16.36
2018-08-10T02:46:13.416Z,16.35
2018-08-10T02:47:14.188Z,16.35
2018-08-10T02:48:14.959Z,16.34
2018-08-10T02:49:15.728Z,16.33
2018-08-10T02:50:16.500Z,16.32
2018-08-10T02:51:17.308Z,16.31
2018-08-10T02:52:18.077Z,16.31
2018-08-10T02:53:18.849Z,16.30
2018-08-10T02:54:19.619Z,16.29
2018-08-10T02:55:20.392Z,16.29
2018-08-10T02:56:21.192Z,16.28
2018-08-10T02:57:21.957Z,16.27
2018-08-10T02:58:22.727Z,16.27
2018-08-10T02:59:23.501Z,16.26
2018-08-10T03:00:24.279Z,16.25
2018-08-10T03:01:25.075Z,16.25
2018-08-10T03:02:25.858Z,16.24
2018-08-10T03:03:26.625Z,16.23
2018-08-10T03:04:27.411Z,16.23
2018-08-10T03:05:28.176Z,16.22
2018-08-10T03:06:28.986Z,16.21
2018-08-10T03:07:29.752Z,16.20
2018-08-10T03:08:30.535Z,16.20
2018-08-10T03:09:31.300Z,16.19
2018-08-10T03:10:32.073Z,16.19
2018-08-10T03:11:32.880Z,16.19
2018-08-10T03:12:33.651Z,16.19
2018-08-10T03:13:34.432Z,16.19
2018-08-10T03:14:35.206Z,16.19
2018-08-10T03:15:36.973Z,16.19
2018-08-10T03:16:36.771Z,16.19
2018-08-10T03:17:37.541Z,16.19
2018-08-10T03:18:38.320Z,16.19
2018-08-10T03:19:39.088Z,16.19
2018-08-10T03:20:39.863Z,16.20
2018-08-10T03:21:40.657Z,16.20
2018-08-10T03:22:41.438Z,16.21
2018-08-10T03:23:42.203Z,16.21
2018-08-10T03:24:42.978Z,16.22
2018-08-10T03:25:43.761Z,16.22
2018-08-10T03:26:44.558Z,16.22
2018-08-10T03:27:45.328Z,16.23
2018-08-10T03:28:46.104Z,16.23
2018-08-10T03:29:46.879Z,16.22
2018-08-10T03:30:47.654Z,16.22
2018-08-10T03:31:48.456Z,16.22
2018-08-10T03:32:49.224Z,16.22
2018-08-10T03:33:49.999Z,16.22
2018-08-10T03:34:50.770Z,16.22
2018-08-10T03:35:51.542Z,16.21
2018-08-10T03:36:52.346Z,16.21
2018-08-10T03:37:53.113Z,16.20
2018-08-10T03:38:53.985Z,16.19
2018-08-10T03:39:53.672Z,16.19
2018-08-10T03:40:55.446Z,16.18
2018-08-10T03:41:56.251Z,16.17
2018-08-10T03:42:57.030Z,16.16
2018-08-10T03:43:57.806Z,16.16
2018-08-10T03:44:58.586Z,16.15
2018-08-10T03:45:59.357Z,16.14
2018-08-10T03:47:00.163Z,16.13
2018-08-10T03:48:00.927Z,16.12
2018-08-10T03:49:01.706Z,16.11
2018-08-10T03:50:02.480Z,16.10
2018-08-10T03:51:03.255Z,16.10
2018-08-10T03:52:03.056Z,16.09
2018-08-10T03:53:04.836Z,16.08
2018-08-10T03:54:05.598Z,16.08
2018-08-10T03:55:06.378Z,16.07
2018-08-10T03:56:07.158Z,16.06
2018-08-10T03:57:07.951Z,16.05
2018-08-10T03:58:09.718Z,16.04
2018-08-10T03:59:09.497Z,16.04
2018-08-10T04:00:10.271Z,16.03
2018-08-10T04:01:11.047Z,16.02
2018-08-10T04:02:11.838Z,16.02
2018-08-10T04:03:12.624Z,16.01
2018-08-10T04:04:13.384Z,16.01
2018-08-10T04:05:14.155Z,16.00
2018-08-10T04:06:14.929Z,15.99
2018-08-10T04:07:15.724Z,15.99
2018-08-10T04:08:16.507Z,15.98
2018-08-10T04:09:17.282Z,15.97
2018-08-10T04:10:18.054Z,15.97
2018-08-10T04:11:18.829Z,15.96
2018-08-10T04:12:19.641Z,15.95
2018-08-10T04:13:20.407Z,15.94
2018-08-10T04:14:21.178Z,15.93
2018-08-10T04:15:21.955Z,15.92
2018-08-10T04:16:22.732Z,15.91
2018-08-10T04:17:23.529Z,15.90
2018-08-10T04:18:24.301Z,15.89
2018-08-10T04:19:25.079Z,15.88
2018-08-10T04:20:25.851Z,15.87
2018-08-10T04:21:26.628Z,15.86
2018-08-10T04:22:27.429Z,15.85
2018-08-10T04:23:28.580Z,15.85
2018-08-10T04:24:28.959Z,15.85
2018-08-10T04:25:28.155Z,15.84
2018-08-10T04:25:35.626Z,15.83
2018-08-10T04:26:36.402Z,15.83
2018-08-10T04:27:38.192Z,15.83
2018-08-10T04:28:37.965Z,15.83
2018-08-10T04:29:39.736Z,15.84
2018-08-10T04:30:39.509Z,15.84
2018-08-10T04:31:40.276Z,15.85
2018-08-10T04:32:41.076Z,15.85
2018-08-10T04:33:41.847Z,15.86
2018-08-10T04:34:42.620Z,15.87
2018-08-10T04:35:43.392Z,15.87
2018-08-10T04:36:44.165Z,15.88
2018-08-10T04:37:44.965Z,15.89
2018-08-10T04:38:45.737Z,15.90
2018-08-10T04:39:46.524Z,15.90
2018-08-10T04:40:46.304Z,15.92
2018-08-10T04:41:48.070Z,15.93
2018-08-10T04:42:48.870Z,15.94
2018-08-10T04:43:49.644Z,15.95
2018-08-10T04:44:50.417Z,15.96
2018-08-10T04:45:51.191Z,15.97
2018-08-10T04:46:51.969Z,15.98
2018-08-10T04:47:52.770Z,15.99
2018-08-10T04:48:53.542Z,16.00
2018-08-10T04:49:54.318Z,16.00
2018-08-10T04:50:55.088Z,16.01
2018-08-10T04:51:55.864Z,16.01
2018-08-10T04:52:56.669Z,16.02
2018-08-10T04:53:57.443Z,16.02
2018-08-10T04:54:58.247Z,16.02
2018-08-10T04:55:58.995Z,16.02
2018-08-10T04:56:59.774Z,16.02
2018-08-10T04:58:00.574Z,16.02
2018-08-10T04:59:01.347Z,16.02
2018-08-10T05:00:02.126Z,16.02
2018-08-10T05:01:02.903Z,16.02
2018-08-10T05:02:03.670Z,16.02
2018-08-10T05:03:04.470Z,16.02
2018-08-10T05:04:05.243Z,16.02
2018-08-10T05:05:06.019Z,16.02
2018-08-10T05:06:06.798Z,16.02
2018-08-10T05:07:07.569Z,16.02
2018-08-10T05:08:08.368Z,16.02
2018-08-10T05:09:09.148Z,16.03
2018-08-10T05:10:09.923Z,16.03
2018-08-10T05:11:10.698Z,16.04
2018-08-10T05:12:11.472Z,16.05
2018-08-10T05:13:12.269Z,16.07
2018-08-10T05:14:13.044Z,16.09
2018-08-10T05:15:13.823Z,16.12
2018-08-10T05:16:14.643Z,16.17
2018-08-10T05:17:14.367Z,16.24
2018-08-10T05:18:16.168Z,16.33
2018-08-10T05:19:16.945Z,16.44
2018-08-10T05:20:17.715Z,16.57
2018-08-10T05:21:18.488Z,16.72
2018-08-10T05:22:19.277Z,16.89
2018-08-10T05:23:20.075Z,17.08
2018-08-10T05:24:20.852Z,17.26
2018-08-10T05:25:21.624Z,17.47
2018-08-10T05:26:22.397Z,17.69
2018-08-10T05:27:23.176Z,17.90
2018-08-10T05:28:23.967Z,18.11
2018-08-10T05:29:24.739Z,18.32
2018-08-10T05:30:25.512Z,18.55
2018-08-10T05:31:26.285Z,18.80
2018-08-10T05:32:27.060Z,19.05
2018-08-10T05:33:27.866Z,19.27
2018-08-10T05:34:28.641Z,19.48
2018-08-10T05:35:29.414Z,19.69
2018-08-10T05:36:30.183Z,19.90
2018-08-10T05:37:30.953Z,20.10
2018-08-10T05:38:31.760Z,20.30
2018-08-10T05:39:31.531Z,20.49
2018-08-10T05:40:33.308Z,20.68
2018-08-10T05:41:34.078Z,20.87
2018-08-10T05:42:34.852Z,21.07
2018-08-10T05:43:35.647Z,21.26
2018-08-10T05:44:36.421Z,21.48
2018-08-10T05:45:37.193Z,21.68
2018-08-10T05:46:37.965Z,21.88
2018-08-10T05:47:38.736Z,22.07
2018-08-10T05:48:39.540Z,22.24
2018-08-10T05:49:40.307Z,22.35
2018-08-10T05:50:41.095Z,22.48
2018-08-10T05:51:41.860Z,22.64
2018-08-10T05:52:42.721Z,22.79
2018-08-10T05:53:42.447Z,22.96
2018-08-10T05:54:44.213Z,23.12
2018-08-10T05:55:44.985Z,23.28
2018-08-10T05:56:45.760Z,23.46
2018-08-10T05:57:46.533Z,23.62
2018-08-10T05:58:47.336Z,23.72
2018-08-10T05:59:48.103Z,23.78
2018-08-10T06:00:49.027Z,23.85
2018-08-10T06:01:48.654Z,23.92
2018-08-10T06:02:50.431Z,23.98
2018-08-10T06:03:51.331Z,24.04
2018-08-10T06:04:50.998Z,24.11
2018-08-10T06:05:52.769Z,24.18
2018-08-10T06:06:53.540Z,24.22
2018-08-10T06:07:54.316Z,24.26
2018-08-10T06:08:55.108Z,24.32
2018-08-10T06:09:55.883Z,24.35
2018-08-10T06:10:56.656Z,24.38
2018-08-10T06:11:57.428Z,24.41
2018-08-10T06:12:58.201Z,24.44
2018-08-10T06:13:59.001Z,24.45
2018-08-10T06:14:59.775Z,24.49
2018-08-10T06:16:00.548Z,24.50
2018-08-10T06:17:01.331Z,24.54
2018-08-10T06:18:02.479Z,24.56
2018-08-10T06:26:41.403Z,25.34
2018-08-10T06:27:43.238Z,25.33
2018-08-10T06:28:42.948Z,25.36
2018-08-10T06:29:44.744Z,25.40
2018-08-10T06:30:46.515Z,25.45
2018-08-10T06:31:46.289Z,25.48
2018-08-10T06:32:47.059Z,25.48
2018-08-10T06:33:47.855Z,25.51
2018-08-10T06:34:47.627Z,25.55
2018-08-10T06:35:49.407Z,25.59
2018-08-10T06:36:50.172Z,25.65
2018-08-10T06:37:50.952Z,25.74
2018-08-10T06:38:51.722Z,25.85
2018-08-10T06:39:52.533Z,25.95
2018-08-10T06:40:52.292Z,26.08
2018-08-10T06:41:54.065Z,26.18
2018-08-10T06:42:54.847Z,26.23
2018-08-10T06:43:55.621Z,26.32
2018-08-10T06:44:56.601Z,26.37
2018-08-10T06:45:56.195Z,26.44
2018-08-10T06:46:57.967Z,26.48
2018-08-10T06:47:58.737Z,26.53
2018-08-10T06:48:59.518Z,26.56
2018-08-10T06:50:00.308Z,26.57
2018-08-10T06:51:01.209Z,26.58
2018-08-10T06:52:00.850Z,26.59
2018-08-10T06:53:02.632Z,26.57
2018-08-10T06:54:03.399Z,26.55
2018-08-10T06:55:04.197Z,26.55
2018-08-10T06:56:05.042Z,26.57
2018-08-10T06:57:04.771Z,26.59
2018-08-10T06:58:05.523Z,26.62
2018-08-10T06:59:07.298Z,26.67
2018-08-10T07:00:08.094Z,26.73
2018-08-10T07:01:08.992Z,26.79
2018-08-10T07:02:08.653Z,26.87
2018-08-10T07:03:10.425Z,26.97
2018-08-10T07:04:11.200Z,27.02
2018-08-10T07:05:12.003Z,27.08
2018-08-10T07:06:12.773Z,27.16
2018-08-10T07:07:13.544Z,27.23
2018-08-10T07:08:14.323Z,27.25
2018-08-10T07:09:15.089Z,27.29
2018-08-10T07:10:15.887Z,27.34
2018-08-10T07:11:16.659Z,27.41
2018-08-10T07:12:17.432Z,27.41
2018-08-10T07:13:18.317Z,27.39
2018-08-10T07:14:17.979Z,27.38
2018-08-10T07:15:19.775Z,27.35
2018-08-10T07:16:20.551Z,27.36
2018-08-10T07:17:21.325Z,27.36
2018-08-10T07:18:22.102Z,27.36
2018-08-10T07:19:22.876Z,27.37
2018-08-10T07:20:23.682Z,27.38
2018-08-10T07:21:24.449Z,27.40
2018-08-10T07:22:25.229Z,27.44
2018-08-10T07:23:25.999Z,27.48
2018-08-10T07:24:26.773Z,27.50
2018-08-10T07:25:27.568Z,27.50
2018-08-10T07:26:28.343Z,27.52
2018-08-10T07:27:29.110Z,27.55
2018-08-10T07:28:29.883Z,27.58
2018-08-10T07:29:30.655Z,27.59
2018-08-10T07:30:31.462Z,27.60
2018-08-10T07:31:32.229Z,27.62
2018-08-10T07:32:33.013Z,27.65
2018-08-10T07:33:33.782Z,27.63
2018-08-10T07:34:34.555Z,27.63
2018-08-10T07:35:35.350Z,27.64
2018-08-10T07:36:36.127Z,27.66
2018-08-10T07:37:36.894Z,27.73
2018-08-10T07:38:37.741Z,27.76
2018-08-10T07:39:37.445Z,27.82
2018-08-10T07:40:39.237Z,27.83
2018-08-10T07:41:40.021Z,27.83
2018-08-10T07:42:40.788Z,27.86
2018-08-10T07:43:41.569Z,27.87
2018-08-10T07:44:42.334Z,27.89
2018-08-10T07:45:43.131Z,27.90
2018-08-10T07:46:43.906Z,27.94
2018-08-10T07:47:44.677Z,27.98
2018-08-10T07:48:45.451Z,28.00
2018-08-10T07:49:46.224Z,28.01
2018-08-10T07:50:47.029Z,27.99
2018-08-10T07:51:47.802Z,27.99
2018-08-10T07:52:48.579Z,27.98
2018-08-10T07:53:49.372Z,27.96
2018-08-10T07:54:50.124Z,27.93
2018-08-10T07:55:50.937Z,27.91
2018-08-10T07:56:51.701Z,27.88
2018-08-10T07:57:52.479Z,27.83
2018-08-10T07:58:53.256Z,27.78
2018-08-10T07:59:54.027Z,27.72
2018-08-10T08:00:54.826Z,27.67
2018-08-10T08:01:55.597Z,27.62
2018-08-10T08:02:56.369Z,27.56
2018-08-10T08:03:57.144Z,27.51
2018-08-10T08:04:57.915Z,27.44
2018-08-10T08:05:58.713Z,27.36
2018-08-10T08:06:59.516Z,27.30
2018-08-10T08:07:59.285Z,27.25
2018-08-10T08:09:01.032Z,27.19
2018-08-10T08:10:01.805Z,27.12
2018-08-10T08:11:02.603Z,27.04
2018-08-10T08:12:03.378Z,26.97
2018-08-10T08:13:04.156Z,26.91
2018-08-10T08:14:04.924Z,26.86
2018-08-10T08:15:05.702Z,26.81
2018-08-10T08:16:06.507Z,26.77
2018-08-10T08:17:07.272Z,26.75
2018-08-10T08:18:08.254Z,26.72
2018-08-10T08:19:08.031Z,26.69
2018-08-10T08:20:08.717Z,26.66
2018-08-10T08:21:10.516Z,26.64
2018-08-10T08:22:11.285Z,26.62
2018-08-10T08:23:12.055Z,26.58
2018-08-10T08:24:12.833Z,26.53
2018-08-10T08:25:16.697Z,26.48
2018-08-10T08:32:05.079Z,25.01
2018-08-10T08:33:07.848Z,25.01
2018-08-10T08:34:07.619Z,25.02
2018-08-10T08:35:08.509Z,25.01
2018-08-10T08:36:08.163Z,25.02
2018-08-10T08:37:08.959Z,25.01
2018-08-10T08:38:10.990Z,24.97
2018-08-10T08:39:11.671Z,24.95
2018-08-10T08:40:12.443Z,24.93
2018-08-10T08:41:13.214Z,24.92
2018-08-10T08:42:14.011Z,24.91
2018-08-10T08:43:14.785Z,24.91
2018-08-10T08:44:15.557Z,24.90
2018-08-10T08:45:16.412Z,24.89
2018-08-10T08:46:16.427Z,24.84
2018-08-10T08:47:16.894Z,24.80
2018-08-10T08:48:18.755Z,24.74
2018-08-10T08:49:18.453Z,24.68
2018-08-10T08:50:20.225Z,24.62
2018-08-10T08:51:21.998Z,24.56
2018-08-10T08:52:21.797Z,24.49
2018-08-10T08:53:22.565Z,24.40
2018-08-10T08:54:23.344Z,24.31
2018-08-10T08:55:24.114Z,24.21
2018-08-10T08:56:24.885Z,24.11
2018-08-10T08:57:25.679Z,24.00
2018-08-10T08:58:26.458Z,23.89
2018-08-10T08:59:27.226Z,23.80
2018-08-10T09:00:28.259Z,23.73
2018-08-10T09:01:27.948Z,23.67
2018-08-10T09:02:29.745Z,23.62
2018-08-10T09:03:30.519Z,23.55
2018-08-10T09:04:31.287Z,23.50
2018-08-10T09:05:32.063Z,23.44
2018-08-10T09:06:32.834Z,23.40
2018-08-10T09:07:33.640Z,23.36
2018-08-10T09:08:33.411Z,23.34
2018-08-10T09:09:35.186Z,23.32
2018-08-10T09:10:35.958Z,23.29
2018-08-10T09:11:36.730Z,23.26
2018-08-10T09:12:37.525Z,23.26
2018-08-10T09:13:38.305Z,23.26
2018-08-10T09:14:39.070Z,23.25
2018-08-10T09:15:39.865Z,23.25
2018-08-10T09:16:40.613Z,23.23
2018-08-10T09:17:41.561Z,23.23
2018-08-10T09:18:41.284Z,23.22
2018-08-10T09:19:41.985Z,23.21
2018-08-10T09:20:43.757Z,23.20
2018-08-10T09:21:44.531Z,23.20
2018-08-10T09:22:45.336Z,23.21
2018-08-10T09:23:46.110Z,23.23
2018-08-10T09:24:46.888Z,23.24
2018-08-10T09:25:47.660Z,23.23
2018-08-10T09:26:48.437Z,23.24
2018-08-10T09:27:49.234Z,23.24
2018-08-10T09:28:50.013Z,23.24
2018-08-10T09:29:50.788Z,23.23
2018-08-10T09:30:51.558Z,23.22
2018-08-10T09:31:52.333Z,23.21
2018-08-10T09:32:53.139Z,23.20
2018-08-10T09:33:53.910Z,23.19
2018-08-10T09:34:54.689Z,23.20
2018-08-10T09:35:55.462Z,23.20
2018-08-10T09:36:56.234Z,23.21
2018-08-10T09:37:57.036Z,23.23
2018-08-10T09:38:57.812Z,23.26
2018-08-10T09:39:58.584Z,23.27
2018-08-10T09:40:59.358Z,23.28
2018-08-10T09:42:00.154Z,23.28
2018-08-10T09:43:00.939Z,23.30
2018-08-10T09:44:01.711Z,23.32
2018-08-10T09:45:02.484Z,23.35
2018-08-10T09:46:03.274Z,23.39
2018-08-10T09:47:04.042Z,23.41
2018-08-10T09:48:04.838Z,23.44
2018-08-10T09:49:05.620Z,23.47
2018-08-10T09:50:06.382Z,23.51
2018-08-10T09:51:07.161Z,23.55
2018-08-10T09:52:07.939Z,23.55
2018-08-10T09:53:08.996Z,23.56
2018-08-10T09:54:08.692Z,23.58
2018-08-10T09:55:10.467Z,23.60
2018-08-10T09:56:11.251Z,23.64
2018-08-10T09:57:12.017Z,23.67
2018-08-10T09:58:12.814Z,23.71
2018-08-10T09:59:13.592Z,23.75
2018-08-10T10:00:14.366Z,23.79
2018-08-10T10:01:15.142Z,23.82
2018-08-10T10:02:15.913Z,23.85
2018-08-10T10:03:16.734Z,23.87
2018-08-10T10:04:17.502Z,23.91
2018-08-10T10:05:18.288Z,23.95
2018-08-10T10:06:19.051Z,23.99
2018-08-10T10:07:19.823Z,24.04
2018-08-10T10:08:20.624Z,24.09
2018-08-10T10:09:21.393Z,24.15
2018-08-10T10:10:22.166Z,24.20
2018-08-10T10:11:22.942Z,24.24
2018-08-10T10:12:23.716Z,24.28
2018-08-10T10:13:24.549Z,24.33
2018-08-10T10:14:25.320Z,24.37
2018-08-10T10:15:26.094Z,24.41
2018-08-10T10:16:26.865Z,24.45
2018-08-10T10:17:27.665Z,24.47
2018-08-10T10:18:27.444Z,24.50
2018-08-10T10:19:29.223Z,24.52
2018-08-10T10:20:29.990Z,24.53
2018-08-10T10:21:29.767Z,24.55
2018-08-10T10:22:31.539Z,24.57
2018-08-10T10:23:32.344Z,24.60
2018-08-10T10:24:33.117Z,24.62
2018-08-10T10:25:33.891Z,24.64
2018-08-10T10:26:34.669Z,24.67
2018-08-10T10:27:35.439Z,24.69
2018-08-10T10:28:36.242Z,24.72
2018-08-10T10:29:37.116Z,24.74
2018-08-10T10:30:38.313Z,24.76
2018-08-10T10:31:38.495Z,24.79
2018-08-10T10:32:38.709Z,24.82
2018-08-10T10:33:41.362Z,24.83
2018-08-10T10:42:15.510Z,25.20
2018-08-10T10:43:16.282Z,25.20
2018-08-10T10:44:17.057Z,25.20
2018-08-10T10:45:16.853Z,25.21
2018-08-10T10:46:18.627Z,25.21
2018-08-10T10:47:19.419Z,25.22
2018-08-10T10:48:19.172Z,25.21
2018-08-10T10:49:20.943Z,25.22
2018-08-10T10:50:21.742Z,25.22
2018-08-10T10:51:22.512Z,25.23
2018-08-10T10:52:23.286Z,25.23
2018-08-10T10:53:24.054Z,25.22
2018-08-10T10:54:24.828Z,25.20
2018-08-10T10:55:25.683Z,25.17
2018-08-10T10:56:25.413Z,25.14
2018-08-10T10:57:26.180Z,25.10
2018-08-10T10:58:27.952Z,25.05
2018-08-10T10:59:28.727Z,25.02
2018-08-10T11:00:29.524Z,25.00
2018-08-10T11:01:30.304Z,24.98
2018-08-10T11:02:31.082Z,24.97
2018-08-10T11:03:31.851Z,24.94
2018-08-10T11:04:31.625Z,24.91
2018-08-10T11:05:33.431Z,24.88
2018-08-10T11:06:34.208Z,24.84
2018-08-10T11:07:34.978Z,24.81
2018-08-10T11:08:35.749Z,24.78
2018-08-10T11:09:36.528Z,24.74
2018-08-10T11:10:37.331Z,24.70
2018-08-10T11:11:38.099Z,24.67
2018-08-10T11:12:38.879Z,24.62
2018-08-10T11:13:39.650Z,24.59
2018-08-10T11:14:40.433Z,24.55
2018-08-10T11:15:41.233Z,24.53
2018-08-10T11:16:42.007Z,24.51
2018-08-10T11:17:42.777Z,24.50
2018-08-10T11:18:43.547Z,24.49
2018-08-10T11:19:44.321Z,24.48
2018-08-10T11:20:45.120Z,24.49
2018-08-10T11:21:45.892Z,24.49
2018-08-10T11:22:46.670Z,24.49
2018-08-10T11:23:47.447Z,24.50
2018-08-10T11:24:48.224Z,24.50
2018-08-10T11:25:49.187Z,24.49
2018-08-10T11:26:48.792Z,24.48
2018-08-10T11:27:50.568Z,24.45
2018-08-10T11:28:51.338Z,24.42
2018-08-10T11:29:52.117Z,24.40
2018-08-10T11:30:52.916Z,24.39
2018-08-10T11:31:53.745Z,24.39
2018-08-10T11:32:54.461Z,24.39
2018-08-10T11:33:55.238Z,24.39
2018-08-10T11:34:56.010Z,24.40
2018-08-10T11:35:57.805Z,24.41
2018-08-10T11:36:57.578Z,24.42
2018-08-10T11:37:58.350Z,24.44
2018-08-10T11:38:59.127Z,24.44
2018-08-10T11:39:59.901Z,24.45
2018-08-10T11:41:00.702Z,24.47
2018-08-10T11:42:00.479Z,24.48
2018-08-10T11:43:02.250Z,24.51
2018-08-10T11:44:03.024Z,24.53
2018-08-10T11:45:03.882Z,24.54
2018-08-10T11:46:03.604Z,24.55
2018-08-10T11:47:05.376Z,24.57
2018-08-10T11:48:06.155Z,24.59
2018-08-10T11:49:06.925Z,24.61
2018-08-10T11:50:07.740Z,24.64
2018-08-10T11:51:07.504Z,24.66
2018-08-10T11:52:09.278Z,24.68
2018-08-10T11:53:10.050Z,24.71
2018-08-10T11:54:10.827Z,24.74
2018-08-10T11:55:11.609Z,24.76
2018-08-10T11:56:12.404Z,24.78
2018-08-10T11:57:13.217Z,24.80
2018-08-10T11:58:13.956Z,24.82
2018-08-10T11:59:14.735Z,24.84
2018-08-10T12:00:15.505Z,24.87
2018-08-10T12:01:16.309Z,24.90
2018-08-10T12:02:17.089Z,24.93
2018-08-10T12:03:17.858Z,24.95
2018-08-10T12:04:18.628Z,24.98
2018-08-10T12:05:19.411Z,25.01
2018-08-10T12:06:20.343Z,25.02
2018-08-10T12:07:19.982Z,25.04
2018-08-10T12:08:21.759Z,25.05
2018-08-10T12:09:22.532Z,25.06
2018-08-10T12:10:23.309Z,25.06
2018-08-10T12:11:24.147Z,25.07
2018-08-10T12:12:23.932Z,25.08
2018-08-10T12:13:24.656Z,25.10
2018-08-10T12:14:26.428Z,25.11
2018-08-10T12:15:27.202Z,25.14
2018-08-10T12:16:28.006Z,25.17
2018-08-10T12:17:28.783Z,25.18
2018-08-10T12:18:29.573Z,25.20
2018-08-10T12:19:30.333Z,25.20
2018-08-10T12:20:31.110Z,25.21
2018-08-10T12:21:31.906Z,25.22
2018-08-10T12:22:31.681Z,25.22
2018-08-10T12:23:33.457Z,25.24
2018-08-10T12:24:34.260Z,25.25
2018-08-10T12:25:35.003Z,25.27
2018-08-10T12:26:35.807Z,25.29
2018-08-10T12:27:36.579Z,25.32
2018-08-10T12:28:37.355Z,25.33
2018-08-10T12:29:38.129Z,25.34
2018-08-10T12:30:38.909Z,25.33
2018-08-10T12:31:39.707Z,25.32
2018-08-10T12:32:40.478Z,25.30
2018-08-10T12:33:41.255Z,25.29
2018-08-10T12:34:42.024Z,25.27
2018-08-10T12:35:42.798Z,25.24
2018-08-10T12:36:43.597Z,25.20
2018-08-10T12:37:44.374Z,25.16
2018-08-10T12:38:44.168Z,25.11
2018-08-10T12:39:44.950Z,25.08
2018-08-10T12:40:46.717Z,25.05
2018-08-10T12:41:47.529Z,25.01
2018-08-10T12:42:50.061Z,24.99
2018-08-10T12:49:38.132Z,25.03
2018-08-10T12:50:38.950Z,25.02
2018-08-10T12:51:38.675Z,25.03
2018-08-10T12:52:40.470Z,25.04
2018-08-10T12:53:41.241Z,25.05
2018-08-10T12:54:42.020Z,25.06
2018-08-10T12:55:42.788Z,25.08
2018-08-10T12:56:43.563Z,25.10
2018-08-10T12:57:44.364Z,25.11
2018-08-10T12:58:45.155Z,25.12
2018-08-10T12:59:45.914Z,25.13
2018-08-10T13:00:46.696Z,25.14
2018-08-10T13:01:47.463Z,25.15
2018-08-10T13:02:48.288Z,25.14
2018-08-10T13:03:49.042Z,25.14
2018-08-10T13:04:49.815Z,25.14
2018-08-10T13:05:50.590Z,25.13
2018-08-10T13:06:51.366Z,25.13
2018-08-10T13:07:52.171Z,25.15
2018-08-10T13:08:52.942Z,25.17
2018-08-10T13:09:54.719Z,25.19
2018-08-10T13:10:53.593Z,25.23
2018-08-10T13:11:54.286Z,25.28
2018-08-10T13:12:56.074Z,25.33
2018-08-10T13:13:56.859Z,25.38
2018-08-10T13:14:57.629Z,25.44
2018-08-10T13:15:58.409Z,25.51
2018-08-10T13:16:59.178Z,25.57
2018-08-10T13:17:59.997Z,25.62
2018-08-10T13:19:00.752Z,25.62
2018-08-10T13:20:01.526Z,25.62
2018-08-10T13:21:02.299Z,25.60
2018-08-10T13:22:03.071Z,25.58
2018-08-10T13:23:03.869Z,25.55
2018-08-10T13:24:04.643Z,25.53
2018-08-10T13:25:05.423Z,25.51
2018-08-10T13:26:06.192Z,25.49
2018-08-10T13:27:06.962Z,25.45
2018-08-10T13:28:07.767Z,25.41
2018-08-10T13:29:08.547Z,25.38
2018-08-10T13:30:09.322Z,25.36